Time;durP1;ratioP1;P1;durP2;ratioP2;P2;SDS_P1;SDS_P2;PMS_P1;PMS_P2;Temp;Humidity;BMP_temperature;BMP_pressure;BME280_temperature;BME280_humidity;BME280_pressure;Samples;Min_cycle;Max_cycle;Signal;HPM_P1;HPM_P2
2022/05/04 00:00:21;;;;;;;6.60;6.10;;;;;;;;;;5103778;28;20371;-68
2022/05/04 00:02:49;;;;;;;8.63;6.55;;;;;;;;;;5103390;28;20250;-68
2022/05/04 00:05:15;;;;;;;15.68;6.82;;;;;;;;;;5103301;28;20245;-68
2022/05/04 00:07:41;;;;;;;7.15;6.50;;;;;;;;;;5103162;28;20233;-68
2022/05/04 00:10:08;;;;;;;7.47;6.60;;;;;;;;;;5103320;28;20187;-68
2022/05/04 00:12:35;;;;;;;7.20;6.50;;;;;;;;;;5103217;28;20200;-68
2022/05/04 00:15:01;;;;;;;8.85;7.00;;;;;;;;;;5103328;28;20241;-68
2022/05/04 00:17:28;;;;;;;7.57;6.97;;;;;;;;;;5103064;28;20200;-68
2022/05/04 00:19:55;;;;;;;6.80;6.30;;;;;;;;;;5103256;28;20233;-68
2022/05/04 00:22:23;;;;;;;7.82;7.20;;;;;;;;;;5103145;28;20507;-68
2022/05/04 00:24:49;;;;;;;7.55;6.85;;;;;;;;;;5103186;28;20195;-68
2022/05/04 00:27:16;;;;;;;9.35;7.22;;;;;;;;;;5103167;28;20384;-68
2022/05/04 00:29:42;;;;;;;7.97;7.28;;;;;;;;;;5103282;28;20395;-68
2022/05/04 00:32:09;;;;;;;8.63;7.80;;;;;;;;;;5103113;28;20394;-68
2022/05/04 00:34:36;;;;;;;8.02;7.10;;;;;;;;;;5102838;28;20199;-68
2022/05/04 00:37:03;;;;;;;10.88;7.07;;;;;;;;;;5102924;28;20196;-68
2022/05/04 00:39:30;;;;;;;9.50;6.57;;;;;;;;;;5102948;28;20196;-68
2022/05/04 00:42:06;;;;;;;7.38;6.45;;;;;;;;;;5102891;28;20425;-68
2022/05/04 00:44:32;;;;;;;7.32;6.65;;;;;;;;;;5102774;28;20534;-68
2022/05/04 00:46:59;;;;;;;7.03;6.57;;;;;;;;;;5102453;28;20208;-68
2022/05/04 00:49:25;;;;;;;6.97;6.40;;;;;;;;;;5102286;28;20195;-68
2022/05/04 00:51:51;;;;;;;6.97;6.35;;;;;;;;;;5102495;28;20195;-68
2022/05/04 00:54:19;;;;;;;7.40;6.80;;;;;;;;;;5102499;28;20217;-68
2022/05/04 00:56:45;;;;;;;6.78;6.28;;;;;;;;;;5102843;28;20243;-68
2022/05/04 00:59:11;;;;;;;11.13;6.50;;;;;;;;;;5102576;28;20195;-68
2022/05/04 01:01:37;;;;;;;7.93;7.20;;;;;;;;;;5102463;28;20192;-68
2022/05/04 01:04:04;;;;;;;7.75;7.05;;;;;;;;;;5102574;28;20228;-68
2022/05/04 01:06:30;;;;;;;8.73;6.57;;;;;;;;;;5102280;28;20215;-68
2022/05/04 01:08:57;;;;;;;8.48;7.22;;;;;;;;;;5102549;28;20521;-68
2022/05/04 01:11:24;;;;;;;7.47;6.80;;;;;;;;;;5101989;28;20429;-68
2022/05/04 01:14:08;;;;;;;8.55;6.78;;;;;;;;;;5102585;28;20196;-68
2022/05/04 01:16:35;;;;;;;6.85;6.20;;;;;;;;;;5102446;28;20187;-68
2022/05/04 01:19:01;;;;;;;8.10;6.20;;;;;;;;;;5102362;28;20195;-68
2022/05/04 01:21:27;;;;;;;12.57;7.13;;;;;;;;;;5102431;28;20196;-68
2022/05/04 01:23:55;;;;;;;7.35;6.72;;;;;;;;;;5102299;28;20216;-68
2022/05/04 01:26:21;;;;;;;7.38;6.68;;;;;;;;;;5102049;28;20199;-68
2022/05/04 01:28:48;;;;;;;7.78;7.07;;;;;;;;;;5102598;28;20262;-68
2022/05/04 01:31:14;;;;;;;8.05;7.35;;;;;;;;;;5102372;28;20544;-68
2022/05/04 01:33:40;;;;;;;10.07;7.10;;;;;;;;;;5102347;28;20191;-68
2022/05/04 01:36:07;;;;;;;7.75;7.05;;;;;;;;;;5102157;28;20233;-68
2022/05/04 01:38:34;;;;;;;10.25;7.50;;;;;;;;;;5102032;28;20529;-68
2022/05/04 01:41:01;;;;;;;9.07;6.68;;;;;;;;;;5102518;28;20221;-68
2022/05/04 01:43:28;;;;;;;8.45;7.65;;;;;;;;;;5102085;28;20273;-68
2022/05/04 01:45:54;;;;;;;7.30;6.70;;;;;;;;;;5102138;28;20199;-68
2022/05/04 01:48:20;;;;;;;7.85;7.20;;;;;;;;;;5101997;28;20503;-68
2022/05/04 01:50:47;;;;;;;7.53;6.93;;;;;;;;;;5102070;28;20195;-68
2022/05/04 01:53:13;;;;;;;7.90;6.95;;;;;;;;;;5101833;28;20196;-68
2022/05/04 01:55:40;;;;;;;8.15;6.85;;;;;;;;;;5101960;28;20195;-68
2022/05/04 01:58:07;;;;;;;8.68;7.78;;;;;;;;;;5101870;28;20233;-68
2022/05/04 02:00:34;;;;;;;8.07;7.07;;;;;;;;;;5102050;28;20203;-68
2022/05/04 02:03:01;;;;;;;13.52;8.00;;;;;;;;;;5104146;28;20223;-68
2022/05/04 02:05:27;;;;;;;8.00;7.40;;;;;;;;;;5105681;28;20398;-68
2022/05/04 02:07:54;;;;;;;12.13;8.25;;;;;;;;;;5106055;28;20398;-68
2022/05/04 02:10:21;;;;;;;9.57;8.45;;;;;;;;;;5105667;28;20233;-68
2022/05/04 02:12:47;;;;;;;9.00;8.02;;;;;;;;;;5105815;28;20207;-68
2022/05/04 02:15:17;;;;;;;10.18;9.05;;;;;;;;;;5105987;28;20256;-68
2022/05/04 02:17:43;;;;;;;9.00;8.13;;;;;;;;;;5105243;28;20430;-68
2022/05/04 02:20:10;;;;;;;9.18;8.20;;;;;;;;;;5105544;28;20557;-68
2022/05/04 02:22:36;;;;;;;10.15;9.15;;;;;;;;;;5105750;28;20202;-68
2022/05/04 02:25:03;;;;;;;9.77;8.75;;;;;;;;;;5105312;28;20223;-68
2022/05/04 02:27:29;;;;;;;8.98;8.27;;;;;;;;;;5105310;28;20433;-68
2022/05/04 02:29:55;;;;;;;9.38;7.47;;;;;;;;;;5105427;28;20499;-68
2022/05/04 02:32:23;;;;;;;10.82;8.23;;;;;;;;;;5105450;28;20428;-68
2022/05/04 02:40:16;;;;;;;10.57;8.27;;;;;;;;;;5105380;28;20224;-68
2022/05/04 02:42:42;;;;;;;9.35;8.43;;;;;;;;;;5105019;28;20202;-68
2022/05/04 02:45:10;;;;;;;10.57;7.97;;;;;;;;;;5104917;28;20230;-68
2022/05/04 02:47:39;;;;;;;9.40;8.50;;;;;;;;;;5104904;28;20221;-68
2022/05/04 02:50:06;;;;;;;12.07;7.80;;;;;;;;;;5104980;28;20203;-68
2022/05/04 02:52:32;;;;;;;9.65;8.15;;;;;;;;;;5104949;28;20196;-68
2022/05/04 02:54:58;;;;;;;8.80;8.00;;;;;;;;;;5105338;28;20245;-68
2022/05/04 02:57:25;;;;;;;8.98;8.18;;;;;;;;;;5104416;28;20203;-69
2022/05/04 02:59:51;;;;;;;9.65;8.70;;;;;;;;;;5104998;28;20199;-70
2022/05/04 03:02:29;;;;;;;8.77;8.02;;;;;;;;;;5104678;28;20204;-69
2022/05/04 03:04:58;;;;;;;9.30;8.40;;;;;;;;;;5104581;28;20230;-69
2022/05/04 03:07:25;;;;;;;9.05;8.15;;;;;;;;;;5104429;28;20499;-69
2022/05/04 03:09:51;;;;;;;8.68;7.88;;;;;;;;;;5104558;28;20219;-69
2022/05/04 03:12:18;;;;;;;8.70;8.00;;;;;;;;;;5104643;28;20199;-69
2022/05/04 03:14:44;;;;;;;9.68;8.77;;;;;;;;;;5104393;28;20562;-69
2022/05/04 03:17:10;;;;;;;11.43;8.43;;;;;;;;;;5104240;28;20195;-69
2022/05/04 03:19:37;;;;;;;9.77;8.07;;;;;;;;;;5104331;28;20195;-69
2022/05/04 03:22:05;;;;;;;9.48;8.40;;;;;;;;;;5104381;28;20202;-69
2022/05/04 03:24:31;;;;;;;9.98;8.07;;;;;;;;;;5104028;28;20215;-69
2022/05/04 03:26:57;;;;;;;9.80;8.90;;;;;;;;;;5104195;28;20203;-69
2022/05/04 03:29:24;;;;;;;9.60;8.80;;;;;;;;;;5104338;28;20574;-69
2022/05/04 03:31:50;;;;;;;9.10;8.30;;;;;;;;;;5104236;28;20386;-69
2022/05/04 03:34:16;;;;;;;12.80;8.77;;;;;;;;;;5104230;28;20421;-69
2022/05/04 03:36:43;;;;;;;11.40;9.15;;;;;;;;;;5103811;28;20199;-69
2022/05/04 03:39:10;;;;;;;9.43;8.27;;;;;;;;;;5103973;28;20229;-69
2022/05/04 03:41:38;;;;;;;9.05;8.35;;;;;;;;;;5104308;28;20215;-69
2022/05/04 03:44:04;;;;;;;9.32;8.52;;;;;;;;;;5104057;28;20219;-69
2022/05/04 03:46:41;;;;;;;9.05;8.27;;;;;;;;;;5103797;28;20199;-69
2022/05/04 03:49:08;;;;;;;9.25;8.45;;;;;;;;;;5103932;28;20252;-69
2022/05/04 03:51:34;;;;;;;10.10;7.95;;;;;;;;;;5103677;28;20196;-69
2022/05/04 03:54:01;;;;;;;9.65;8.70;;;;;;;;;;5103867;28;20192;-69
2022/05/04 03:56:29;;;;;;;10.27;8.23;;;;;;;;;;5103446;28;20200;-69
2022/05/04 03:58:55;;;;;;;9.38;8.45;;;;;;;;;;5103676;28;20233;-69
2022/05/04 04:01:21;;;;;;;9.85;8.95;;;;;;;;;;5103722;28;20538;-69
2022/05/04 04:03:48;;;;;;;9.10;8.07;;;;;;;;;;5103379;28;20457;-69
2022/05/04 04:06:14;;;;;;;8.70;7.90;;;;;;;;;;5103153;28;20216;-69
2022/05/04 04:08:41;;;;;;;8.63;7.75;;;;;;;;;;5103664;28;20372;-69
2022/05/04 04:11:07;;;;;;;8.98;8.10;;;;;;;;;;5103535;28;20195;-69
2022/05/04 04:13:35;;;;;;;9.18;8.27;;;;;;;;;;5103537;28;20208;-69
2022/05/04 04:16:01;;;;;;;9.18;8.30;;;;;;;;;;5102991;28;20196;-68
2022/05/04 04:18:27;;;;;;;9.13;8.23;;;;;;;;;;5103230;28;20195;-68
2022/05/04 04:23:38;;;;;;;8.65;7.95;;;;;;;;;;5103204;28;20265;-68
2022/05/04 04:26:05;;;;;;;9.77;8.80;;;;;;;;;;5102283;28;20492;-68
2022/05/04 04:28:31;;;;;;;10.20;9.20;;;;;;;;;;5102991;28;20196;-68
2022/05/04 04:30:59;;;;;;;10.48;9.48;;;;;;;;;;5103524;28;20378;-68
2022/05/04 04:33:27;;;;;;;10.68;9.55;;;;;;;;;;5102950;28;20199;-68
2022/05/04 04:35:53;;;;;;;10.57;9.52;;;;;;;;;;5103007;28;20266;-68
2022/05/04 04:38:19;;;;;;;11.32;9.63;;;;;;;;;;5102927;28;20195;-68
2022/05/04 04:40:46;;;;;;;10.82;9.20;;;;;;;;;;5102912;28;20207;-68
2022/05/04 04:43:13;;;;;;;10.70;9.73;;;;;;;;;;5102748;28;20196;-68
2022/05/04 04:45:40;;;;;;;11.07;9.88;;;;;;;;;;5102630;28;20211;-68
2022/05/04 04:48:08;;;;;;;11.98;9.88;;;;;;;;;;5102708;28;20388;-68
2022/05/04 04:50:34;;;;;;;10.57;9.57;;;;;;;;;;5102944;28;20234;-68
2022/05/04 04:53:01;;;;;;;10.30;9.40;;;;;;;;;;5102855;28;20199;-68
2022/05/04 04:55:27;;;;;;;11.98;10.82;;;;;;;;;;5102845;28;20191;-68
2022/05/04 04:57:53;;;;;;;13.27;10.98;;;;;;;;;;5102335;28;20217;-69
2022/05/04 05:00:20;;;;;;;13.75;10.63;;;;;;;;;;5102506;28;20615;-69
2022/05/04 05:02:47;;;;;;;11.32;9.48;;;;;;;;;;5102439;28;20204;-69
2022/05/04 05:05:14;;;;;;;10.10;9.30;;;;;;;;;;5102524;28;20550;-69
2022/05/04 05:07:40;;;;;;;10.50;9.48;;;;;;;;;;5102268;28;20394;-68
2022/05/04 05:10:07;;;;;;;10.85;9.80;;;;;;;;;;5102404;28;20505;-68
2022/05/04 05:12:33;;;;;;;10.35;9.35;;;;;;;;;;5101884;28;20202;-68
2022/05/04 05:17:44;;;;;;;11.52;9.70;;;;;;;;;;5101692;28;20198;-68
2022/05/04 05:20:10;;;;;;;10.05;9.15;;;;;;;;;;5101990;28;20511;-68
2022/05/04 05:22:38;;;;;;;10.27;9.35;;;;;;;;;;5101845;28;20491;-69
2022/05/04 05:25:05;;;;;;;9.90;9.00;;;;;;;;;;5101696;28;20214;-69
2022/05/04 05:27:31;;;;;;;9.55;8.70;;;;;;;;;;5101360;28;20391;-69
2022/05/04 05:29:57;;;;;;;10.18;9.27;;;;;;;;;;5101618;28;20202;-69
2022/05/04 05:32:24;;;;;;;9.93;8.95;;;;;;;;;;5101886;28;20395;-69
2022/05/04 05:34:51;;;;;;;10.05;8.90;;;;;;;;;;5101697;28;20199;-69
2022/05/04 05:37:17;;;;;;;9.98;8.98;;;;;;;;;;5104427;28;20202;-69
2022/05/04 05:39:45;;;;;;;9.70;8.82;;;;;;;;;;5105784;28;20199;-69
2022/05/04 05:42:11;;;;;;;15.65;9.05;;;;;;;;;;5105480;28;20202;-68
2022/05/04 05:44:38;;;;;;;10.00;9.10;;;;;;;;;;5105574;28;20219;-68
2022/05/04 05:47:04;;;;;;;9.80;8.52;;;;;;;;;;5105434;28;20518;-68
2022/05/04 05:49:31;;;;;;;9.50;8.73;;;;;;;;;;5105638;28;20196;-68
2022/05/04 05:51:58;;;;;;;10.02;9.13;;;;;;;;;;5105391;28;20204;-68
2022/05/04 05:54:24;;;;;;;9.75;8.65;;;;;;;;;;5105427;28;20196;-68
2022/05/04 05:56:52;;;;;;;12.20;10.05;;;;;;;;;;5105419;28;20207;-68
2022/05/04 05:59:18;;;;;;;9.07;8.38;;;;;;;;;;5105250;28;20202;-69
2022/05/04 06:01:45;;;;;;;11.63;10.30;;;;;;;;;;5105401;28;20203;-69
2022/05/04 06:04:11;;;;;;;9.50;8.65;;;;;;;;;;5105322;28;20219;-69
2022/05/04 06:06:37;;;;;;;9.63;8.63;;;;;;;;;;5104839;28;20220;-69
2022/05/04 06:09:04;;;;;;;10.98;8.55;;;;;;;;;;5104920;28;20195;-69
2022/05/04 06:11:31;;;;;;;9.63;8.63;;;;;;;;;;5105267;28;20207;-68
2022/05/04 06:13:58;;;;;;;9.13;8.25;;;;;;;;;;5105042;28;20202;-69
2022/05/04 06:16:24;;;;;;;9.20;8.02;;;;;;;;;;5105016;28;20514;-69
2022/05/04 06:18:51;;;;;;;8.45;7.85;;;;;;;;;;5104982;28;20397;-69
2022/05/04 06:21:17;;;;;;;8.80;8.07;;;;;;;;;;5105002;28;20389;-69
2022/05/04 06:23:43;;;;;;;10.48;7.90;;;;;;;;;;5105123;28;20200;-69
2022/05/04 06:26:09;;;;;;;9.95;8.35;;;;;;;;;;5082047;28;20239;-69
2022/05/04 06:28:36;;;;;;;8.85;7.72;;;;;;;;;;5090375;28;20219;-69
2022/05/04 06:36:31;;;;;;;10.85;8.95;;;;;;;;;;5087228;28;20207;-68
2022/05/04 06:38:57;;;;;;;9.82;8.93;;;;;;;;;;5095852;28;20207;-68
2022/05/04 06:41:24;;;;;;;11.35;8.23;;;;;;;;;;5099169;28;20203;-60
2022/05/04 06:43:50;;;;;;;10.38;8.48;;;;;;;;;;5099264;28;20212;-61
2022/05/04 06:46:17;;;;;;;8.88;8.05;;;;;;;;;;5098787;28;20233;-61
2022/05/04 06:48:44;;;;;;;9.70;8.77;;;;;;;;;;5098270;28;20227;-60
2022/05/04 06:51:10;;;;;;;11.98;8.95;;;;;;;;;;5090324;28;20511;-61
2022/05/04 06:53:36;;;;;;;10.07;9.15;;;;;;;;;;5097292;28;20521;-62
2022/05/04 06:56:03;;;;;;;10.55;9.15;;;;;;;;;;5093142;28;20523;-62
2022/05/04 06:58:29;;;;;;;10.02;8.82;;;;;;;;;;5092295;28;20207;-62
2022/05/04 07:00:55;;;;;;;9.93;9.02;;;;;;;;;;5098914;28;20208;-62
2022/05/04 07:03:23;;;;;;;11.68;8.80;;;;;;;;;;5098695;28;20237;-61
2022/05/04 07:05:50;;;;;;;10.10;9.20;;;;;;;;;;5097809;28;20422;-61
2022/05/04 07:08:17;;;;;;;10.18;9.10;;;;;;;;;;5098014;28;20214;-61
2022/05/04 07:10:43;;;;;;;11.02;8.70;;;;;;;;;;5098193;28;20570;-61
2022/05/04 07:13:09;;;;;;;9.10;8.38;;;;;;;;;;5096755;28;20212;-61
2022/05/04 07:15:36;;;;;;;10.35;9.02;;;;;;;;;;5097589;28;20208;-61
2022/05/04 07:18:02;;;;;;;9.95;9.02;;;;;;;;;;5097473;28;20208;-62
2022/05/04 07:20:29;;;;;;;10.70;9.70;;;;;;;;;;5098528;28;20230;-62
2022/05/04 07:22:56;;;;;;;10.63;9.18;;;;;;;;;;5098756;28;20215;-62
2022/05/04 07:25:22;;;;;;;9.75;8.85;;;;;;;;;;5099930;28;20219;-62
2022/05/04 07:27:48;;;;;;;10.35;8.88;;;;;;;;;;5097825;28;20483;-62
2022/05/04 07:30:15;;;;;;;12.23;9.57;;;;;;;;;;5098089;28;20207;-62
2022/05/04 07:32:42;;;;;;;10.70;9.48;;;;;;;;;;5098047;28;20208;-64
2022/05/04 07:35:09;;;;;;;10.25;9.32;;;;;;;;;;5097330;28;20208;-62
2022/05/04 07:37:42;;;;;;;10.95;7.97;;;;;;;;;;5096739;28;20484;-62
2022/05/04 07:42:53;;;;;;;13.23;9.52;;;;;;;;;;5098292;28;20249;-61
2022/05/04 07:45:19;;;;;;;10.23;9.23;;;;;;;;;;5094409;28;20235;-61
2022/05/04 07:47:46;;;;;;;11.18;8.75;;;;;;;;;;5076938;28;20393;-60
2022/05/04 07:50:13;;;;;;;9.70;9.00;;;;;;;;;;5088522;28;20208;-60
2022/05/04 07:52:41;;;;;;;10.43;9.43;;;;;;;;;;5097265;28;20429;-60
2022/05/04 07:55:10;;;;;;;10.15;9.15;;;;;;;;;;5096546;28;20207;-60
2022/05/04 07:57:36;;;;;;;11.82;8.60;;;;;;;;;;5096751;28;20623;-60
2022/05/04 08:05:31;;;;;;;9.00;7.80;;;;;;;;;;5096093;28;20475;-62
2022/05/04 08:07:59;;;;;;;11.07;8.35;;;;;;;;;;5096484;28;20522;-61
2022/05/04 08:10:27;;;;;;;8.60;7.70;;;;;;;;;;5097046;28;20216;-61
2022/05/04 08:12:53;;;;;;;7.55;6.97;;;;;;;;;;5096964;28;20214;-60
2022/05/04 08:15:20;;;;;;;7.55;6.90;;;;;;;;;;5096024;28;20508;-61
2022/05/04 08:17:46;;;;;;;7.45;6.53;;;;;;;;;;5096804;28;20276;-62
2022/05/04 08:20:12;;;;;;;8.70;6.80;;;;;;;;;;5097166;28;20208;-62
2022/05/04 08:22:39;;;;;;;6.47;6.00;;;;;;;;;;5097094;28;20517;-61
2022/05/04 08:25:06;;;;;;;7.15;6.63;;;;;;;;;;5096636;28;20227;-62
2022/05/04 08:27:33;;;;;;;6.55;6.07;;;;;;;;;;5096184;28;20250;-61
2022/05/04 08:29:59;;;;;;;7.95;7.30;;;;;;;;;;5096625;28;20410;-60
2022/05/04 08:32:27;;;;;;;7.15;6.60;;;;;;;;;;5096808;28;20521;-62
2022/05/04 08:34:53;;;;;;;9.50;7.13;;;;;;;;;;5096293;28;20204;-61
2022/05/04 08:37:19;;;;;;;8.13;6.88;;;;;;;;;;5095866;28;20725;-59
2022/05/04 08:39:45;;;;;;;8.70;7.90;;;;;;;;;;5096443;28;20568;-61
2022/05/04 08:42:14;;;;;;;7.10;6.50;;;;;;;;;;5096773;28;20388;-61
2022/05/04 08:44:42;;;;;;;7.38;6.78;;;;;;;;;;5096488;28;20208;-60
2022/05/04 08:47:10;;;;;;;7.78;7.07;;;;;;;;;;5096297;28;20293;-61
2022/05/04 08:49:37;;;;;;;11.77;7.65;;;;;;;;;;5096590;28;20450;-61
2022/05/04 08:52:06;;;;;;;10.20;7.65;;;;;;;;;;5096309;28;20207;-61
2022/05/04 08:54:32;;;;;;;8.15;7.35;;;;;;;;;;5096366;28;20500;-62
2022/05/04 08:56:59;;;;;;;9.48;7.95;;;;;;;;;;5095980;28;20204;-61
2022/05/04 08:59:28;;;;;;;9.35;8.40;;;;;;;;;;5095841;28;20527;-61
2022/05/04 09:01:54;;;;;;;12.95;9.25;;;;;;;;;;5096226;28;20207;-61
2022/05/04 09:04:21;;;;;;;8.52;7.65;;;;;;;;;;5096367;28;20214;-60
2022/05/04 09:06:48;;;;;;;14.55;10.88;;;;;;;;;;5095568;28;20486;-62
2022/05/04 09:09:14;;;;;;;11.15;9.38;;;;;;;;;;5095497;28;20218;-62
2022/05/04 09:11:42;;;;;;;9.38;8.35;;;;;;;;;;5095770;28;20208;-61
2022/05/04 09:14:09;;;;;;;12.30;8.48;;;;;;;;;;5095939;28;20577;-62
2022/05/04 09:16:37;;;;;;;10.98;9.13;;;;;;;;;;5095587;28;20208;-62
2022/05/04 09:19:05;;;;;;;13.15;8.93;;;;;;;;;;5095973;28;20211;-61
2022/05/04 09:21:32;;;;;;;9.02;8.20;;;;;;;;;;5096379;28;20503;-62
2022/05/04 09:23:58;;;;;;;10.05;8.18;;;;;;;;;;5095940;28;20207;-62
2022/05/04 09:26:24;;;;;;;8.75;7.97;;;;;;;;;;5095291;28;20789;-63
2022/05/04 09:28:51;;;;;;;10.13;8.15;;;;;;;;;;5095367;28;20214;-62
2022/05/04 09:31:18;;;;;;;8.98;8.27;;;;;;;;;;5095551;28;20207;-62
2022/05/04 09:33:52;;;;;;;13.48;8.23;;;;;;;;;;5095832;28;20207;-61
2022/05/04 09:36:29;;;;;;;8.23;7.53;;;;;;;;;;5095248;28;20415;-61
2022/05/04 09:47:17;;;;;;;9.10;8.27;;;;;;;;;;5075123;28;20243;-61
2022/05/04 09:49:46;;;;;;;9.43;6.68;;;;;;;;;;5082201;28;20222;-61
2022/05/04 09:52:14;;;;;;;8.00;7.22;;;;;;;;;;5095434;28;20207;-61
2022/05/04 09:54:40;;;;;;;6.43;5.80;;;;;;;;;;5095477;28;20557;-62
2022/05/04 09:57:07;;;;;;;6.50;5.93;;;;;;;;;;5095178;28;20275;-62
2022/05/04 09:59:34;;;;;;;6.05;5.45;;;;;;;;;;5095395;28;20207;-62
2022/05/04 10:02:02;;;;;;;4.70;4.40;;;;;;;;;;5095059;28;20227;-61
2022/05/04 10:04:32;;;;;;;5.38;3.75;;;;;;;;;;5095129;28;20535;-61
2022/05/04 10:07:00;;;;;;;4.20;3.95;;;;;;;;;;5095037;28;20414;-62
2022/05/04 10:09:27;;;;;;;6.60;4.20;;;;;;;;;;5095581;28;20246;-62
2022/05/04 10:11:57;;;;;;;4.75;4.10;;;;;;;;;;5095209;28;20389;-62
2022/05/04 10:14:23;;;;;;;5.07;4.65;;;;;;;;;;5095311;28;20250;-62
2022/05/04 10:16:51;;;;;;;9.50;6.53;;;;;;;;;;5095284;28;20200;-62
2022/05/04 10:19:20;;;;;;;7.63;6.90;;;;;;;;;;5095489;28;20204;-62
2022/05/04 10:21:49;;;;;;;10.93;7.10;;;;;;;;;;5094976;28;20215;-61
2022/05/04 10:24:17;;;;;;;9.98;6.82;;;;;;;;;;5098073;28;20276;-62
2022/05/04 10:26:45;;;;;;;8.02;6.60;;;;;;;;;;5098761;28;20284;-61
2022/05/04 10:32:07;;;;;;;7.43;6.13;;;;;;;;;;5098595;28;20406;-60
2022/05/04 10:34:33;;;;;;;6.53;6.00;;;;;;;;;;5098758;28;20531;-60
2022/05/04 10:36:59;;;;;;;11.95;7.18;;;;;;;;;;5098709;28;20210;-60
2022/05/04 10:39:27;;;;;;;8.13;7.25;;;;;;;;;;5099022;28;20496;-60
2022/05/04 10:41:53;;;;;;;8.02;7.30;;;;;;;;;;5099395;28;20211;-60
2022/05/04 10:44:40;;;;;;;9.48;8.50;;;;;;;;;;5098911;28;20211;-62
2022/05/04 10:47:06;;;;;;;16.08;8.38;;;;;;;;;;5098467;28;20436;-60
2022/05/04 10:49:34;;;;;;;9.63;7.75;;;;;;;;;;5098477;28;20212;-60
2022/05/04 10:52:04;;;;;;;10.02;8.77;;;;;;;;;;5098603;28;20242;-60
2022/05/04 10:54:33;;;;;;;13.73;10.18;;;;;;;;;;5097783;28;20219;-60
2022/05/04 10:56:59;;;;;;;11.57;9.70;;;;;;;;;;5098206;28;20229;-60
2022/05/04 10:59:26;;;;;;;11.65;9.63;;;;;;;;;;5098337;28;20383;-60
2022/05/04 11:01:56;;;;;;;12.10;10.85;;;;;;;;;;5098099;28;20215;-59
2022/05/04 11:04:23;;;;;;;10.43;9.52;;;;;;;;;;5097538;28;20233;-60
2022/05/04 11:06:56;;;;;;;14.15;9.68;;;;;;;;;;5097703;28;20235;-60
2022/05/04 11:09:24;;;;;;;10.98;9.18;;;;;;;;;;5098308;28;20253;-60
2022/05/04 11:11:52;;;;;;;9.98;8.93;;;;;;;;;;5098342;28;20445;-60
2022/05/04 11:14:22;;;;;;;10.50;9.50;;;;;;;;;;5097716;28;20296;-60
2022/05/04 11:16:49;;;;;;;11.68;8.90;;;;;;;;;;5097664;28;20204;-60
2022/05/04 11:19:15;;;;;;;13.07;8.50;;;;;;;;;;5098021;28;20265;-60
2022/05/04 11:21:42;;;;;;;9.55;7.60;;;;;;;;;;5098042;28;20215;-60
2022/05/04 11:24:09;;;;;;;10.77;8.13;;;;;;;;;;5097731;28;20249;-60
2022/05/04 11:26:36;;;;;;;8.45;7.65;;;;;;;;;;5097986;28;20228;-60
2022/05/04 11:29:07;;;;;;;12.43;7.90;;;;;;;;;;5098105;28;20395;-60
2022/05/04 11:31:34;;;;;;;9.27;8.30;;;;;;;;;;5098122;28;20208;-60
2022/05/04 11:34:00;;;;;;;8.88;8.00;;;;;;;;;;5097221;28;20499;-60
2022/05/04 11:36:27;;;;;;;9.43;6.47;;;;;;;;;;5096759;28;20199;-60
2022/05/04 11:38:53;;;;;;;9.95;6.30;;;;;;;;;;5097792;28;20211;-60
2022/05/04 11:41:20;;;;;;;7.88;6.00;;;;;;;;;;5097856;28;20323;-60
2022/05/04 11:43:48;;;;;;;10.38;6.20;;;;;;;;;;5097592;28;20231;-60
2022/05/04 11:46:15;;;;;;;6.63;5.90;;;;;;;;;;5096542;28;20254;-62
2022/05/04 11:48:43;;;;;;;7.40;6.20;;;;;;;;;;5095967;28;20218;-61
2022/05/04 11:51:09;;;;;;;6.43;5.55;;;;;;;;;;5097166;28;20213;-61
2022/05/04 11:53:36;;;;;;;7.43;5.60;;;;;;;;;;5097406;28;20212;-62
2022/05/04 11:56:03;;;;;;;5.70;5.18;;;;;;;;;;5096291;28;20215;-62
2022/05/04 11:58:30;;;;;;;5.38;4.93;;;;;;;;;;5097739;28;20222;-63
2022/05/04 12:00:56;;;;;;;5.72;5.07;;;;;;;;;;5097891;28;20215;-62
2022/05/04 12:03:25;;;;;;;9.30;5.82;;;;;;;;;;5097205;28;20215;-62
2022/05/04 12:05:51;;;;;;;6.32;5.50;;;;;;;;;;5096886;28;20216;-61
2022/05/04 12:08:19;;;;;;;6.32;5.40;;;;;;;;;;5096589;28;20562;-62
2022/05/04 12:10:45;;;;;;;5.50;5.10;;;;;;;;;;5097195;28;20289;-62
2022/05/04 12:13:15;;;;;;;6.72;4.70;;;;;;;;;;5097182;28;20208;-62
2022/05/04 12:15:42;;;;;;;6.45;5.38;;;;;;;;;;5096511;28;20290;-62
2022/05/04 12:18:09;;;;;;;8.55;6.10;;;;;;;;;;5096226;28;20413;-62
2022/05/04 12:20:37;;;;;;;5.80;5.35;;;;;;;;;;5096744;28;20211;-61
2022/05/04 12:23:04;;;;;;;7.43;5.95;;;;;;;;;;5096315;28;20218;-62
2022/05/04 12:25:31;;;;;;;5.43;5.10;;;;;;;;;;5096557;28;20448;-61
2022/05/04 12:33:45;;;;;;;7.82;5.82;;;;;;;;;;5095735;28;20249;-61
2022/05/04 12:36:12;;;;;;;6.03;5.38;;;;;;;;;;5096251;28;20241;-61
2022/05/04 12:38:45;;;;;;;5.70;5.00;;;;;;;;;;5096592;28;20214;-60
2022/05/04 12:41:12;;;;;;;6.53;5.72;;;;;;;;;;5096709;28;20367;-60
2022/05/04 12:43:39;;;;;;;7.32;5.25;;;;;;;;;;5096077;28;20388;-61
2022/05/04 12:46:08;;;;;;;6.22;5.38;;;;;;;;;;5095248;28;20216;-60
2022/05/04 12:48:37;;;;;;;5.70;5.20;;;;;;;;;;5096342;28;20214;-60
2022/05/04 12:51:04;;;;;;;8.18;5.60;;;;;;;;;;5096650;28;20222;-61
2022/05/04 12:53:31;;;;;;;9.32;5.30;;;;;;;;;;5096270;28;20230;-61
2022/05/04 12:58:42;;;;;;;5.70;5.20;;;;;;;;;;5096283;28;20218;-61
2022/05/04 13:01:08;;;;;;;6.70;5.15;;;;;;;;;;5096203;28;20207;-61
2022/05/04 13:03:34;;;;;;;6.15;5.57;;;;;;;;;;5095675;28;20254;-61
2022/05/04 13:06:02;;;;;;;5.25;4.70;;;;;;;;;;5095547;28;20294;-61
2022/05/04 13:08:28;;;;;;;5.70;5.10;;;;;;;;;;5096176;28;20550;-60
2022/05/04 13:10:56;;;;;;;6.63;4.60;;;;;;;;;;5096189;28;20219;-61
2022/05/04 13:13:25;;;;;;;5.95;4.32;;;;;;;;;;5095541;28;20214;-61
2022/05/04 13:15:51;;;;;;;6.43;4.90;;;;;;;;;;5095559;28;20588;-60
2022/05/04 13:18:18;;;;;;;5.32;4.90;;;;;;;;;;5095890;28;20207;-61
2022/05/04 13:20:45;;;;;;;5.43;4.80;;;;;;;;;;5096197;28;20269;-61
2022/05/04 13:23:11;;;;;;;4.78;4.30;;;;;;;;;;5096479;28;20250;-61
2022/05/04 13:25:37;;;;;;;7.10;4.65;;;;;;;;;;5095249;28;20218;-61
2022/05/04 13:28:05;;;;;;;6.65;4.70;;;;;;;;;;5095821;28;20425;-61
2022/05/04 13:30:32;;;;;;;5.65;5.25;;;;;;;;;;5096033;28;20433;-61
2022/05/04 13:32:58;;;;;;;5.40;4.95;;;;;;;;;;5095798;28;20386;-61
2022/05/04 13:35:24;;;;;;;8.43;5.20;;;;;;;;;;5095042;28;20212;-61
2022/05/04 13:37:51;;;;;;;5.07;4.28;;;;;;;;;;5095567;28;20210;-60
2022/05/04 13:40:17;;;;;;;5.28;3.78;;;;;;;;;;5095826;28;20268;-61
2022/05/04 13:42:43;;;;;;;4.05;3.60;;;;;;;;;;5095619;28;20442;-60
2022/05/04 13:45:12;;;;;;;2.72;2.53;;;;;;;;;;5095651;28;20215;-62
2022/05/04 13:47:38;;;;;;;2.28;2.17;;;;;;;;;;5095484;28;20224;-61
2022/05/04 13:50:05;;;;;;;2.65;2.45;;;;;;;;;;5095909;28;20207;-61
2022/05/04 13:55:21;;;;;;;4.82;3.30;;;;;;;;;;5082465;28;20261;-62
2022/05/04 13:57:47;;;;;;;4.72;4.10;;;;;;;;;;5083036;28;20193;-62
2022/05/04 14:00:15;;;;;;;4.05;3.53;;;;;;;;;;5084464;28;20204;-62
2022/05/04 14:02:42;;;;;;;3.67;3.35;;;;;;;;;;5085276;28;20329;-62
2022/05/04 14:05:08;;;;;;;4.65;3.30;;;;;;;;;;5084843;28;20226;-62
2022/05/04 14:07:34;;;;;;;3.70;3.40;;;;;;;;;;5084437;28;20216;-62
2022/05/04 14:10:00;;;;;;;4.97;3.70;;;;;;;;;;5084973;28;20291;-62
2022/05/04 14:12:26;;;;;;;5.05;3.70;;;;;;;;;;5085022;28;20196;-63
2022/05/04 14:15:02;;;;;;;6.20;3.88;;;;;;;;;;5084807;28;20204;-62
2022/05/04 14:17:29;;;;;;;6.88;3.40;;;;;;;;;;5084347;28;20200;-63
2022/05/04 14:19:55;;;;;;;4.80;3.50;;;;;;;;;;5084600;28;20189;-62
2022/05/04 14:22:22;;;;;;;5.30;3.25;;;;;;;;;;5084588;28;20250;-63
2022/05/04 14:24:48;;;;;;;3.72;3.45;;;;;;;;;;5084733;28;20196;-63
2022/05/04 14:27:14;;;;;;;4.88;4.30;;;;;;;;;;5084417;28;20336;-62
2022/05/04 14:29:40;;;;;;;8.52;4.20;;;;;;;;;;5084199;28;20250;-63
2022/05/04 14:32:07;;;;;;;5.50;5.00;;;;;;;;;;5084347;28;20242;-63
2022/05/04 14:34:35;;;;;;;6.00;3.70;;;;;;;;;;5084344;28;20234;-62
2022/05/04 14:37:02;;;;;;;4.30;3.33;;;;;;;;;;5084453;28;20271;-62
2022/05/04 14:39:29;;;;;;;2.80;2.70;;;;;;;;;;5084439;28;20242;-64
2022/05/04 14:41:55;;;;;;;2.45;2.35;;;;;;;;;;5084040;28;20196;-63
2022/05/04 14:44:21;;;;;;;3.33;2.17;;;;;;;;;;5084224;28;20204;-62
2022/05/04 14:46:49;;;;;;;3.30;2.17;;;;;;;;;;5083864;28;20216;-62
2022/05/04 14:49:15;;;;;;;2.58;1.85;;;;;;;;;;5084140;28;20197;-62
2022/05/04 14:51:43;;;;;;;2.80;1.77;;;;;;;;;;5084416;28;20203;-62
2022/05/04 14:54:09;;;;;;;1.42;1.42;;;;;;;;;;5084196;28;20218;-62
2022/05/04 14:56:38;;;;;;;1.65;1.27;;;;;;;;;;5083895;28;20204;-62
2022/05/04 14:59:04;;;;;;;1.50;1.30;;;;;;;;;;5083965;28;20210;-63
2022/05/04 15:01:30;;;;;;;1.48;1.38;;;;;;;;;;5083858;28;20196;-63
2022/05/04 15:06:40;;;;;;;1.92;1.52;;;;;;;;;;5083542;28;20535;-63
2022/05/04 15:09:08;;;;;;;1.35;1.35;;;;;;;;;;5082946;28;20385;-63
2022/05/04 15:11:34;;;;;;;3.65;1.70;;;;;;;;;;5083796;28;20200;-63
2022/05/04 15:14:00;;;;;;;1.35;1.30;;;;;;;;;;5083493;28;20204;-63
2022/05/04 15:16:27;;;;;;;2.00;1.42;;;;;;;;;;5083612;28;20392;-63
2022/05/04 15:18:53;;;;;;;2.25;1.70;;;;;;;;;;5083707;28;20492;-63
2022/05/04 15:21:19;;;;;;;3.65;1.35;;;;;;;;;;5083629;28;20204;-63
2022/05/04 15:23:45;;;;;;;2.20;2.08;;;;;;;;;;5083813;28;20242;-63
2022/05/04 15:26:13;;;;;;;2.10;1.90;;;;;;;;;;5083231;28;20203;-63